This is the latest recevied weather packets stored in our database for station/object IZ5MMH-14. If no packets are shown the sender has not sent any weather packets the latest 10 day(s).
| Time | Temp. | Humidity | Pressure | Rain* | Wind** | Luminosity | Snow |
|---|---|---|---|---|---|---|---|
| 1777611608 | 12.22° C | 47% | 1023.8 hPa | - | - | - | - |
| 1777611008 | 12.22° C | 47% | 1023.7 hPa | - | - | - | - |
| 1777610408 | 11.67° C | 47% | 1023.7 hPa | - | - | - | - |
| 1777609809 | 11.67° C | 48% | 1023.6 hPa | - | - | - | - |
| 1777609208 | 11.67° C | 45% | 1023.6 hPa | - | - | - | - |
| 1777608608 | 11.67° C | 44% | 1023.4 hPa | - | - | - | - |
| 1777608008 | 11.67° C | 45% | 1023.2 hPa | - | - | - | - |
| 1777607408 | 11.11° C | 46% | 1023.1 hPa | - | - | - | - |
| 1777606808 | 11.67° C | 45% | 1023 hPa | - | - | - | - |
| 1777606208 | 11.67° C | 44% | 1022.9 hPa | - | - | - | - |
| 1777605608 | 11.67° C | 44% | 1023 hPa | - | - | - | - |
| 1777605008 | 11.67° C | 44% | 1022.9 hPa | - | - | - | - |
| 1777604408 | 11.67° C | 44% | 1022.9 hPa | - | - | - | - |
| 1777603808 | 11.11° C | 45% | 1022.9 hPa | - | - | - | - |
| 1777603208 | 11.67° C | 46% | 1022.8 hPa | - | - | - | - |
| 1777602608 | 11.67° C | 46% | 1022.8 hPa | - | - | - | - |
| 1777602008 | 11.67° C | 47% | 1022.9 hPa | - | - | - | - |
| 1777601408 | 11.67° C | 47% | 1022.8 hPa | - | - | - | - |
| 1777586399 | 14.44° C | 46% | 1021.5 hPa | - | - | - | - |
| 1777585804 | 15° C | 46% | 1021.3 hPa | - | - | - | - |
| 1777584599 | 15.56° C | 44% | 1021.3 hPa | - | - | - | - |
| 1777583998 | 15.56° C | 44% | 1021.3 hPa | - | - | - | - |
| 1777583399 | 15.56° C | 43% | 1021.2 hPa | - | - | - | - |
| 1777580999 | 16.67° C | 39% | 1020.9 hPa | - | - | - | - |
| 1777580398 | 17.22° C | 37% | 1020.9 hPa | - | - | - | - |
* Rain since midnight (hover to see other rain measurements)
** Current wind speed in m/s (hover to see current wind gust speed)